Uhland, Texas
Current Conditions -  °F | °C
As of 7:45 AM on Saturday 22 Nov 2014 (Local Time) from KHYI Reporting Station
Overcast Overcast  
Wind Chill: 66°   Ceiling: 2500
Heat Index: 66°   Visibility: 2mi
Dew Point: 63°   Wind: 7mph
Humidity: 88%   Direction: 150°SSE
Pressure: 30.03"   Gusts: NA
Location:  29.9978°N, 97.835°W
Report Text: KHYI 221345Z 15006KT 2SM TSR SCT012 BKN025 OVC050 19/17 A3003 RMK TS OVHD
Loading
Personal Weather Stations






























Interactive Weather Map New forecast layout! Learn more

10-Day Weather Forecast

Advertisements
Track Severe Weather on mobile